Capitalizator.

Capitalize Yourself: Right Data. Real Growth.

Sector Analysis

Pharmaceutical Preparations

Standard Industrial Classification: SIC 2834

Industry Insider Sentiment Analysis

The Pharmaceutical Preparations sector (SIC 2834) acts as a critical barometer for broader economic health. Our real-time monitoring reveals total transactions. Monitoring "cluster buying" is one of the most reliable leading indicators for future sector performance. By analyzing aggregate data across this specific Standard Industrial Classification, investors can filter out individual company volatility and identify high-conviction trends. When multiple directors and officers within the same industry move capital simultaneously, it often signals an upcoming sector-wide revaluation or a fundamental shift in supply chain dynamics that has yet to be recognized by the broader public market.

Filing Date Trade Date Ticker Company Reporting Person Relationship Type Price Qty Total, $ Owned After
2026-03-07 00:25 2026-03-04 ZLAB Zai Lab Ltd Du Ying Director, Officer OPT+S $19.19 100,000 $1,919,210 964,161
2026-03-07 00:26 2026-03-05 ZLAB Zai Lab Ltd Edmondson Frazor Titus III Officer SELL $19.06 15,569 $296,745 3,517
2026-03-07 00:09 2026-03-05 DYN Dyne Therapeutics, Inc. Kerr Douglas Officer SELL $14.90 904 $13,470 171,606
2026-03-07 00:09 2026-03-04 PEPG PepGen Inc. McArthur James G Director, Officer SELL $6.23 5,275 $32,876 296,326
2026-03-07 00:09 2026-03-04 TEVA TEVA PHARMACEUTICAL INDUSTRIES LTD Hughes Eric A Officer OPT+S $32.46 11,277 $366,102 97,590
2026-03-07 00:10 2026-03-05 DYN Dyne Therapeutics, Inc. Friedl-Naderer Johanna Officer SELL $14.90 148 $2,205 154,581
2026-03-07 00:11 2026-03-04 ALNY Alnylam Pharmaceuticals Inc. Fitzgerald Kevin Joseph Officer SELL $323.54 1,291 $417,685 20,569
2026-03-07 00:12 2026-03-04 PEPG PepGen Inc. Donnelly Noel Officer SELL $6.23 2,084 $12,988 111,603
2026-03-07 00:12 2026-03-04 ALNY Alnylam Pharmaceuticals Inc. Tanguler Tolga Officer SELL $323.08 2,309 $745,984 34,297
2026-03-07 00:12 2026-03-04 ALNY Alnylam Pharmaceuticals Inc. Poulton Jeffrey V. Officer SELL $323.08 2,468 $797,351 61,805
2026-03-07 00:13 2026-03-04 ALNY Alnylam Pharmaceuticals Inc. Greenstreet Yvonne Director, Officer SELL $323.08 2,933 $947,581 95,695
2026-03-07 00:13 2026-03-04 ALNY Alnylam Pharmaceuticals Inc. Garg Pushkal Officer SELL $323.53 4,713 $1,524,795 18,693
2026-03-07 00:14 2026-03-04 PEPG PepGen Inc. STRECK PAUL Officer SELL $6.23 1,879 $11,709 76,226
2026-03-06 17:00 2026-03-04 ERAS Erasca, Inc. Morris Shannon Officer OPT+S $15.04 20,000 $300,760 0
2026-03-06 15:28 2026-03-05 PMN ProMIS Neurosciences Inc. Williams Eugene Director BUY $24.40 2,000 $48,800 12,397
2026-03-06 00:06 2026-03-03 TEVA TEVA PHARMACEUTICAL INDUSTRIES LTD Savage Brian Officer OPT+S $32.36 1,274 $41,227 2,926
2026-03-06 00:01 2026-03-03 TEVA TEVA PHARMACEUTICAL INDUSTRIES LTD Hughes Eric A Officer OPT+S $32.36 80,762 $2,613,450 85,616
2026-03-06 00:09 2026-03-03 TEVA TEVA PHARMACEUTICAL INDUSTRIES LTD Daniell Richard Officer OPT+S $32.36 128,985 $4,173,942 123,127
2026-03-06 00:05 2026-03-03 TEVA TEVA PHARMACEUTICAL INDUSTRIES LTD Francis Richard D Officer OPT+S $32.36 442,935 $14,333,332 1,121,382
2026-03-06 00:07 2026-03-03 ZLAB Zai Lab Ltd Amado Rafael Officer SELL $17.38 10,000 $173,800 42,391
2026-03-06 01:01 2026-03-04 EDSA Edesa Biotech, Inc. Nijhawan Pardeep Director, Officer, 10% owner BUY $4.26 10,000 $42,560 392,702
2026-03-06 00:08 2026-03-03 AGIO Agios Pharmaceuticals Inc. Washburn Theodore James Jr. Officer SELL $28.88 5,272 $152,255 868
2026-03-06 00:05 2026-03-03 HROW HARROW, INC. Opaleye Management Inc. 10% owner SELL $39.51 198,572 $7,846,434 59,428
2026-03-06 00:16 2026-03-05 INSM INSMED Inc Lewis William Director, Officer OPT+S $146.03 10,699 $1,562,328 301,185
2026-03-06 00:35 2026-03-04 UTHR UNITED THERAPEUTICS Corp Thompson Tommy G Director OPT+S $489.42 2,000 $978,839 8,480
2026-03-06 00:34 2026-03-04 UTHR UNITED THERAPEUTICS Corp CAUSEY CHRISTOPHER Director OPT+S $490.17 20 $9,803 4,190
2026-03-06 00:36 2026-03-04 UTHR UNITED THERAPEUTICS Corp KURZWEIL RAY Director OPT+S $489.02 4,910 $2,401,088 12,670
2026-03-06 00:33 2026-03-03 UTHR UNITED THERAPEUTICS Corp ROTHBLATT MARTINE A Director, Officer OPT+S $499.42 9,500 $4,744,466 130
2026-03-06 04:00 2026-03-03 OLMA Olema Pharmaceuticals, Inc. Mitchell Shawnte Officer OPT+S $23.79 40,000 $951,504 0
2026-03-06 03:06 2026-03-03 BCAX Bicara Therapeutics Inc. Raben David Officer OPT+S $18.52 16,500 $305,610 55,286
2026-03-06 03:08 2026-03-03 BCAX Bicara Therapeutics Inc. Hyep Ivan Officer OPT+S $18.22 16,518 $300,971 145,355
2026-03-06 03:10 2026-03-03 BCAX Bicara Therapeutics Inc. Cohlhepp Ryan Director, Officer OPT+S $18.16 17,392 $315,893 205,141
2026-03-06 02:55 2026-03-03 ANTX AN2 Therapeutics, Inc. Williams Sarah Joanne Officer SELL $1.06 327 $347 66,848
2026-03-06 02:55 2026-03-04 AKBA Akebia Therapeutics Inc. Butler John P. Director, Officer BUY $1.25 69,270 $86,588 3,367,064
2026-03-06 02:13 2026-03-03 IONS IONIS PHARMACEUTICALS INC Baroldi Joseph Officer OPT+S $79.74 6,659 $530,987 4,347
2026-03-06 02:13 2026-03-03 IONS IONIS PHARMACEUTICALS INC BENNETT C FRANK Officer OPT+S $79.23 85,089 $6,741,670 80,554
2026-03-06 02:14 2026-03-03 IONS IONIS PHARMACEUTICALS INC Devers Shannon L. Officer OPT+S $79.40 20,106 $1,596,432 22,541
2026-03-06 02:14 2026-03-03 IONS IONIS PHARMACEUTICALS INC Diaz Allene M. Director OPT+S $79.35 54,878 $4,354,427 3,811
2026-03-06 02:14 2026-03-03 IONS IONIS PHARMACEUTICALS INC KLEIN JOSEPH III Director OPT+S $79.51 21,332 $1,696,182 11,014
2026-03-06 02:14 2026-03-03 IONS IONIS PHARMACEUTICALS INC LOSCALZO JOSEPH Director OPT+S $80.26 1,032 $82,833 36,330
2026-03-06 01:46 2026-03-05 ANIP Ani Pharmaceuticals Inc. CAREY STEPHEN P. Officer OPT+S $75.50 7,312 $552,031 185,543
2026-03-06 00:36 2026-03-04 UTHR UNITED THERAPEUTICS Corp ROTHBLATT MARTINE A Director, Officer OPT+S $317.97 19,000 $6,041,413 130
2026-03-06 00:37 2026-03-05 UTHR UNITED THERAPEUTICS Corp MAHON PAUL A Officer OPT+S $483.16 8,300 $4,010,187 36,844
2026-03-06 00:27 2026-03-05 CYTK CYTOKINETICS INC Callos Andrew Officer OPT+S $61.87 26,000 $1,608,729 50,440
2026-03-06 00:29 2026-03-03 COLL COLLEGIUM PHARMACEUTICAL, INC Dreyer Scott Officer SELL $40.41 49,976 $2,019,435 71,770
2026-03-05 19:05 2026-03-03 LGND LIGAND PHARMACEUTICALS INC Sabba Stephen L Director OPT+S $201.50 2,034 $409,851 33,793
2026-03-05 16:00 2026-03-04 FBLG FibroBiologics, Inc. Khoja Hamid Officer BUY $0.38 30,000 $11,400 61,250
2026-03-05 00:21 2026-03-02 VRTX VERTEX PHARMACEUTICALS INC / MA Liu Joy Officer SELL $495.96 892 $442,396 22,811
2026-03-05 00:16 2026-03-02 ARQT Arcutis Biotherapeutics Inc. Welgus Howard G. Director SELL $25.65 10,000 $256,518 49,744
2026-03-05 00:00 2026-03-02 AMLX Amylyx Pharmaceuticals, Inc. Common Stock Klee Justin B. Director, Officer SELL $14.47 29,282 $423,760 3,334,616
SHOW ENTRIES

Sector-Wide Insider Alpha

Analyzing insider movements across the Pharmaceutical Preparations sector provides a macro-view of executive conviction. When multiple leaders in different companies within the same SIC code (2834) simultaneously buy shares, it often indicates an industry-wide undervaluation or a positive shift in market cycles.

SEC Filings in Pharmaceutical Preparations

Every transaction in the Pharmaceutical Preparations industry is reported via Form 4 disclosures. By filtering these filings by industry, investors can detect institutional-scale sentiment shifts before they are reflected in broader market indices, following the capital flow of those with intimate industry knowledge.

UNDERSTANDING THE DATA

FILING DATE: The date and time when the transaction was reported to the SEC. This is when the public first receives the information.

TRADE DATE: The actual day the insider executed the purchase or sale in the market.

INDUSTRY: The specific market sector the company operates in. Useful for identifying broader institutional capital flows across sectors.

OWNED AFTER: The total number of shares held by the insider following the transaction. This highlights the insider's remaining conviction in the company.

CHANGE %: The percentage increase or decrease of the insider's total position. Large percentage changes often carry more weight than the dollar amount alone.

TRADE TYPES DEFINITIONS

BUY: An open market purchase. Typically indicates an insider's belief that the stock is undervalued or poised for growth.

SELL: An open market sale. While often used for diversification or liquidity, large or unexpected sales can be a warning signal.

OPT+S (OPTION EXERCISE & SALE): This occurs when an insider exercises their stock options and sells them immediately. Often part of a structured compensation plan.